Time;durP1;ratioP1;P1;durP2;ratioP2;P2;SDS_P1;SDS_P2;PMS_P1;PMS_P2;Temp;Humidity;BMP_temperature;BMP_pressure;BME280_temperature;BME280_humidity;BME280_pressure;Samples;Min_cycle;Max_cycle;Signal;HPM_P1;HPM_P2
2021/04/17 00:00:29;;;;;;;18.53;14.33;;;7.50;99.90;;;;;;5090594;28;20299;-66
2021/04/17 00:02:56;;;;;;;15.87;13.07;;;7.40;99.90;;;;;;5088277;28;20399;-66
2021/04/17 00:05:22;;;;;;;18.70;13.90;;;7.40;99.90;;;;;;5069726;28;20304;-65
2021/04/17 00:07:48;;;;;;;18.37;14.27;;;7.40;99.90;;;;;;5083980;28;20538;-65
2021/04/17 00:10:15;;;;;;;18.10;14.97;;;7.50;99.90;;;;;;5079003;28;20204;-65
2021/04/17 00:12:43;;;;;;;19.57;15.60;;;7.50;99.90;;;;;;5086128;28;20213;-66
2021/04/17 00:15:10;;;;;;;20.37;15.30;;;7.50;99.90;;;;;;5088813;28;20918;-66
2021/04/17 00:17:36;;;;;;;19.07;14.83;;;7.50;99.90;;;;;;5087132;28;20651;-65
2021/04/17 00:20:04;;;;;;;19.13;15.57;;;7.50;99.90;;;;;;5084518;28;20616;-66
2021/04/17 00:22:30;;;;;;;19.40;15.87;;;7.50;99.90;;;;;;5084749;28;20288;-64
2021/04/17 00:24:56;;;;;;;18.17;14.17;;;7.50;99.90;;;;;;5083458;28;20611;-66
2021/04/17 00:27:23;;;;;;;18.50;15.10;;;7.40;99.90;;;;;;5081654;28;20233;-66
2021/04/17 00:29:50;;;;;;;19.63;14.83;;;7.40;99.90;;;;;;5088893;28;20209;-66
2021/04/17 00:32:16;;;;;;;17.50;14.70;;;7.40;99.90;;;;;;5083867;28;20236;-66
2021/04/17 00:34:43;;;;;;;18.53;14.43;;;7.40;99.90;;;;;;5087260;28;20201;-66
2021/04/17 00:37:10;;;;;;;17.77;14.50;;;7.50;99.90;;;;;;5081863;28;20304;-65
2021/04/17 00:39:37;;;;;;;18.73;13.10;;;7.40;99.90;;;;;;5082878;28;20219;-66
2021/04/17 00:42:03;;;;;;;18.23;14.57;;;7.40;99.90;;;;;;5093807;28;20204;-65
2021/04/17 00:44:30;;;;;;;17.30;13.90;;;7.40;99.90;;;;;;5083533;28;20237;-65
2021/04/17 00:46:57;;;;;;;19.33;13.73;;;7.40;99.90;;;;;;5070196;28;20205;-66
2021/04/17 00:49:24;;;;;;;15.83;13.17;;;7.40;99.90;;;;;;5080552;28;20212;-67
2021/04/17 00:51:50;;;;;;;15.47;12.73;;;7.30;99.90;;;;;;5086783;28;20668;-66
2021/04/17 00:54:17;;;;;;;16.67;13.10;;;7.30;99.90;;;;;;5080932;28;20253;-66
2021/04/17 00:56:43;;;;;;;16.03;13.10;;;7.30;99.90;;;;;;5086357;28;20307;-65
2021/04/17 00:59:10;;;;;;;15.83;12.37;;;7.30;99.90;;;;;;5084420;28;20209;-66
2021/04/17 01:01:37;;;;;;;15.47;13.03;;;7.30;99.90;;;;;;5085618;28;20246;-66
2021/04/17 01:04:10;;;;;;;15.60;12.33;;;7.30;99.90;;;;;;5079210;28;20270;-65
2021/04/17 01:06:43;;;;;;;16.37;12.70;;;7.30;99.90;;;;;;5073649;28;20550;-66
2021/04/17 01:09:13;;;;;;;15.23;11.80;;;7.30;99.90;;;;;;5084788;28;20614;-66
2021/04/17 01:11:45;;;;;;;14.13;11.80;;;7.30;99.90;;;;;;5090384;28;20653;-66
2021/04/17 01:14:12;;;;;;;16.07;11.73;;;7.30;99.90;;;;;;5082696;28;20307;-66
2021/04/17 01:16:39;;;;;;;15.33;11.70;;;7.30;99.90;;;;;;5075355;28;20312;-67
2021/04/17 01:19:10;;;;;;;14.87;12.03;;;7.30;99.90;;;;;;5077355;28;20742;-67
2021/04/17 01:21:37;;;;;;;16.13;10.97;;;7.30;99.90;;;;;;5076804;28;20255;-66
2021/04/17 01:24:11;;;;;;;12.67;10.73;;;7.30;99.90;;;;;;5082604;28;20202;-65
2021/04/17 01:26:39;;;;;;;13.27;10.30;;;7.20;99.90;;;;;;5084735;28;20311;-66
2021/04/17 01:29:06;;;;;;;13.90;11.13;;;7.20;99.90;;;;;;5088022;28;20308;-64
2021/04/17 01:31:34;;;;;;;14.30;10.70;;;7.20;99.90;;;;;;5079923;28;20706;-64
2021/04/17 01:34:04;;;;;;;14.23;10.93;;;7.20;99.90;;;;;;5072865;28;20288;-65
2021/04/17 01:36:35;;;;;;;15.80;12.03;;;7.20;99.90;;;;;;5081697;28;20225;-66
2021/04/17 01:39:06;;;;;;;12.37;11.07;;;7.20;99.90;;;;;;5076783;28;20205;-66
2021/04/17 01:41:36;;;;;;;13.00;10.10;;;7.20;99.90;;;;;;5085321;28;20197;-66
2021/04/17 01:44:07;;;;;;;16.80;11.80;;;7.30;99.90;;;;;;5090042;28;20213;-65
2021/04/17 01:46:40;;;;;;;17.83;10.43;;;7.20;99.90;;;;;;5074025;28;21226;-66
2021/04/17 01:49:09;;;;;;;15.13;11.30;;;7.20;99.90;;;;;;5080388;28;20642;-65
2021/04/17 01:51:38;;;;;;;15.13;10.77;;;7.10;99.90;;;;;;5078800;28;20243;-65
2021/04/17 01:54:08;;;;;;;13.17;10.23;;;7.10;99.90;;;;;;5079732;28;20719;-66
2021/04/17 01:56:36;;;;;;;14.43;9.97;;;7.10;99.90;;;;;;5077037;28;20243;-65
2021/04/17 01:59:03;;;;;;;12.87;10.07;;;7.10;99.90;;;;;;5080034;28;20196;-65
2021/04/17 02:01:30;;;;;;;13.97;10.40;;;7.10;99.90;;;;;;5088377;28;20228;-66
2021/04/17 02:03:56;;;;;;;13.53;10.73;;;7.10;99.90;;;;;;5080308;28;20200;-65
2021/04/17 02:06:23;;;;;;;14.70;10.37;;;7.20;99.90;;;;;;5071063;28;20221;-66
2021/04/17 02:08:49;;;;;;;15.20;10.47;;;7.20;99.90;;;;;;5081285;28;20680;-65
2021/04/17 02:11:15;;;;;;;12.03;10.00;;;7.20;99.90;;;;;;5091754;28;20593;-65
2021/04/17 02:13:42;;;;;;;13.60;10.97;;;7.20;99.90;;;;;;5081268;28;20228;-63
2021/04/17 02:16:12;;;;;;;12.77;10.17;;;7.10;99.90;;;;;;5072939;28;20233;-65
2021/04/17 02:18:47;;;;;;;14.23;10.53;;;7.10;99.90;;;;;;5074949;28;20284;-65
2021/04/17 02:21:19;;;;;;;16.03;10.53;;;7.10;99.90;;;;;;5088308;28;20650;-67
2021/04/17 02:23:46;;;;;;;13.90;10.83;;;7.10;99.90;;;;;;5078578;28;20224;-65
2021/04/17 02:26:13;;;;;;;11.93;9.37;;;7.10;99.90;;;;;;5082006;28;20689;-64
2021/04/17 02:28:40;;;;;;;15.87;11.63;;;7.10;99.90;;;;;;5069293;28;20323;-64
2021/04/17 02:31:06;;;;;;;12.43;10.57;;;7.00;99.90;;;;;;5084997;28;20201;-66
2021/04/17 02:33:34;;;;;;;12.23;10.00;;;7.10;99.90;;;;;;5083096;28;20610;-65
2021/04/17 02:36:00;;;;;;;14.80;10.77;;;7.00;99.90;;;;;;5078155;28;20736;-64
2021/04/17 02:38:27;;;;;;;14.93;11.33;;;7.10;99.90;;;;;;5081563;28;20215;-65
2021/04/17 02:40:53;;;;;;;12.57;10.83;;;7.10;99.90;;;;;;5090262;28;20205;-65
2021/04/17 02:43:19;;;;;;;12.97;10.67;;;7.10;99.90;;;;;;5084658;28;20205;-66
2021/04/17 02:45:46;;;;;;;17.23;11.63;;;7.10;99.90;;;;;;5080859;28;20209;-66
2021/04/17 02:48:12;;;;;;;16.40;10.93;;;7.10;99.90;;;;;;5078158;28;20209;-65
2021/04/17 02:50:39;;;;;;;13.87;11.13;;;7.10;99.90;;;;;;5079498;28;20213;-65
2021/04/17 02:53:06;;;;;;;14.10;11.10;;;7.10;99.90;;;;;;5082202;28;20258;-64
2021/04/17 02:55:32;;;;;;;14.10;11.03;;;7.00;99.90;;;;;;5077473;28;20207;-65
2021/04/17 02:57:59;;;;;;;14.07;10.77;;;7.00;99.90;;;;;;5090877;28;20251;-64
2021/04/17 03:00:25;;;;;;;15.23;11.90;;;7.00;99.90;;;;;;5078832;28;20217;-65
2021/04/17 03:02:52;;;;;;;16.40;12.17;;;7.00;99.90;;;;;;5086439;28;20240;-65
2021/04/17 03:05:19;;;;;;;16.37;13.03;;;6.90;99.90;;;;;;5064952;28;20203;-65
2021/04/17 03:07:47;;;;;;;18.37;12.43;;;7.00;99.90;;;;;;5088025;28;20208;-64
2021/04/17 03:10:14;;;;;;;19.53;12.37;;;7.00;99.90;;;;;;5080638;28;20272;-66
2021/04/17 03:12:40;;;;;;;15.80;12.40;;;7.00;99.90;;;;;;5076785;28;20733;-65
2021/04/17 03:15:08;;;;;;;15.83;11.93;;;7.00;99.90;;;;;;5088754;28;20307;-65
2021/04/17 03:17:35;;;;;;;15.70;12.60;;;7.00;99.90;;;;;;5079575;28;20232;-65
2021/04/17 03:20:01;;;;;;;15.87;11.80;;;7.00;99.90;;;;;;5075166;28;20204;-65
2021/04/17 03:22:28;;;;;;;18.57;12.43;;;7.10;99.90;;;;;;5076527;28;20227;-65
2021/04/17 03:24:55;;;;;;;14.53;11.90;;;7.10;99.90;;;;;;5085347;28;20251;-68
2021/04/17 03:27:22;;;;;;;16.80;12.03;;;7.10;99.90;;;;;;5072469;28;20233;-65
2021/04/17 03:29:48;;;;;;;17.67;13.47;;;7.10;99.90;;;;;;5082262;28;20205;-66
2021/04/17 03:32:16;;;;;;;15.53;12.17;;;7.10;99.90;;;;;;5087981;28;20217;-65
2021/04/17 03:34:42;;;;;;;18.63;11.33;;;7.20;99.90;;;;;;5089200;28;20664;-66
2021/04/17 03:37:09;;;;;;;16.77;12.27;;;7.20;99.90;;;;;;5085738;28;20807;-66
2021/04/17 03:39:35;;;;;;;16.23;11.77;;;7.20;99.90;;;;;;5080503;28;20292;-66
2021/04/17 03:42:02;;;;;;;16.03;11.17;;;7.30;99.90;;;;;;5084238;28;20630;-66
2021/04/17 03:44:29;;;;;;;15.87;11.27;;;7.20;99.90;;;;;;5083763;28;20300;-65
2021/04/17 03:46:55;;;;;;;16.37;11.67;;;7.30;99.90;;;;;;5082045;28;20208;-66
2021/04/17 03:49:22;;;;;;;12.83;11.20;;;7.30;99.90;;;;;;5082813;28;20230;-65
2021/04/17 03:51:48;;;;;;;18.40;11.13;;;7.30;99.90;;;;;;5092793;28;20216;-66
2021/04/17 03:54:14;;;;;;;14.03;11.37;;;7.30;99.90;;;;;;5083040;28;20201;-66
2021/04/17 03:56:41;;;;;;;17.07;11.13;;;7.30;99.90;;;;;;5083707;28;20220;-66
2021/04/17 03:59:08;;;;;;;15.30;11.07;;;7.40;99.90;;;;;;5082156;28;20210;-65
2021/04/17 04:01:34;;;;;;;20.23;12.00;;;7.40;99.90;;;;;;5093176;28;20291;-65
2021/04/17 04:04:01;;;;;;;14.27;11.00;;;7.40;99.90;;;;;;5078804;28;20296;-66
2021/04/17 04:06:27;;;;;;;14.43;11.33;;;7.50;99.90;;;;;;5082159;28;20211;-65
2021/04/17 04:08:54;;;;;;;15.67;10.73;;;7.50;99.90;;;;;;5083536;28;20237;-66
2021/04/17 04:11:20;;;;;;;15.00;11.03;;;7.50;99.90;;;;;;5086117;28;20687;-66
2021/04/17 04:13:47;;;;;;;16.73;11.60;;;7.50;99.90;;;;;;5090695;28;20225;-66
2021/04/17 04:16:14;;;;;;;15.57;12.23;;;7.50;99.90;;;;;;5074433;28;20248;-64
2021/04/17 04:18:41;;;;;;;16.60;11.03;;;7.50;99.90;;;;;;5077847;28;20551;-65
2021/04/17 04:21:07;;;;;;;16.20;11.93;;;7.50;99.90;;;;;;5084509;28;20636;-65
2021/04/17 04:23:33;;;;;;;15.80;11.90;;;7.50;99.90;;;;;;5088226;28;20572;-66
2021/04/17 04:26:00;;;;;;;15.23;10.80;;;7.50;99.90;;;;;;5082352;28;20300;-66
2021/04/17 04:28:26;;;;;;;14.50;11.80;;;7.50;99.90;;;;;;5085478;28;20604;-65
2021/04/17 04:30:53;;;;;;;14.33;11.03;;;7.50;99.90;;;;;;5086771;28;20201;-64
2021/04/17 04:33:20;;;;;;;15.63;11.50;;;7.60;99.90;;;;;;5089955;28;20211;-67
2021/04/17 04:35:47;;;;;;;17.33;11.20;;;7.60;99.90;;;;;;5078458;28;20208;-66
2021/04/17 04:38:13;;;;;;;15.00;10.77;;;7.60;99.90;;;;;;5086615;28;20221;-66
2021/04/17 04:40:40;;;;;;;15.07;11.00;;;7.60;99.90;;;;;;5088447;28;20304;-65
2021/04/17 04:43:06;;;;;;;16.13;11.20;;;7.60;99.90;;;;;;5087540;28;20645;-64
2021/04/17 04:45:32;;;;;;;17.93;12.60;;;7.60;99.90;;;;;;5079540;28;20198;-66
2021/04/17 04:47:59;;;;;;;15.73;11.10;;;7.60;99.90;;;;;;5093957;28;20264;-66
2021/04/17 04:50:26;;;;;;;15.67;10.83;;;7.60;99.90;;;;;;5083499;28;20213;-65
2021/04/17 04:52:52;;;;;;;18.70;12.23;;;7.70;99.90;;;;;;5086167;28;20204;-65
2021/04/17 04:55:19;;;;;;;17.07;12.67;;;7.70;99.90;;;;;;5077588;28;20209;-65
2021/04/17 04:57:45;;;;;;;17.37;11.73;;;7.70;99.90;;;;;;5083987;28;20220;-64
2021/04/17 05:00:13;;;;;;;15.37;11.80;;;7.70;99.90;;;;;;5083603;28;20804;-65
2021/04/17 05:02:39;;;;;;;17.37;12.33;;;7.70;99.90;;;;;;5085122;28;20346;-64
2021/04/17 05:05:07;;;;;;;20.00;13.33;;;7.70;99.90;;;;;;5074643;28;20236;-65
2021/04/17 05:07:34;;;;;;;23.23;13.57;;;7.70;99.90;;;;;;5082743;28;20223;-65
2021/04/17 05:10:00;;;;;;;22.20;13.60;;;7.70;99.90;;;;;;5083261;28;20232;-65
2021/04/17 05:12:26;;;;;;;20.13;13.47;;;7.80;99.90;;;;;;5088564;28;20207;-65
2021/04/17 05:14:53;;;;;;;21.97;13.87;;;7.80;99.90;;;;;;5082177;28;20220;-65
2021/04/17 05:17:19;;;;;;;20.93;13.17;;;7.80;99.90;;;;;;5078295;28;20316;-66
2021/04/17 05:19:45;;;;;;;21.83;13.37;;;7.80;99.90;;;;;;5074657;28;20208;-66
2021/04/17 05:22:12;;;;;;;22.63;12.37;;;7.80;99.90;;;;;;5088565;28;20224;-66
2021/04/17 05:24:40;;;;;;;26.60;13.37;;;7.80;99.90;;;;;;5078145;28;20204;-64
2021/04/17 05:27:06;;;;;;;19.77;12.73;;;7.80;99.90;;;;;;5078889;28;20263;-65
2021/04/17 05:29:33;;;;;;;22.77;12.70;;;7.90;99.90;;;;;;5081302;28;20369;-64
2021/04/17 05:31:59;;;;;;;25.83;14.43;;;7.90;99.90;;;;;;5074138;28;20202;-65
2021/04/17 05:34:26;;;;;;;22.10;13.30;;;7.90;99.90;;;;;;5077784;28;20223;-64
2021/04/17 05:36:52;;;;;;;21.80;14.10;;;8.00;99.90;;;;;;5084997;28;20230;-65
2021/04/17 05:39:18;;;;;;;25.73;13.87;;;8.00;99.90;;;;;;5082799;28;20551;-65
2021/04/17 05:41:45;;;;;;;23.90;14.40;;;8.10;99.90;;;;;;5085331;28;20197;-65
2021/04/17 05:44:12;;;;;;;26.90;14.13;;;8.10;99.90;;;;;;5088700;28;20571;-65
2021/04/17 05:46:39;;;;;;;21.77;13.23;;;8.10;99.90;;;;;;5076894;28;20624;-65
2021/04/17 05:49:06;;;;;;;25.97;13.70;;;8.10;99.90;;;;;;5074637;28;20205;-65
2021/04/17 05:51:33;;;;;;;26.07;13.97;;;8.10;99.90;;;;;;5081736;28;20209;-63
2021/04/17 05:54:00;;;;;;;24.93;13.83;;;8.10;99.90;;;;;;5083816;28;20231;-64
2021/04/17 05:56:26;;;;;;;30.13;14.33;;;8.20;99.90;;;;;;5088581;28;20221;-65
2021/04/17 05:58:54;;;;;;;21.90;14.57;;;8.20;99.90;;;;;;5084465;28;20287;-65
2021/04/17 06:01:20;;;;;;;26.70;15.27;;;8.10;99.90;;;;;;5078491;28;20201;-65
2021/04/17 06:03:47;;;;;;;26.00;14.07;;;8.20;99.90;;;;;;5080295;28;20204;-66
2021/04/17 06:06:14;;;;;;;22.30;14.90;;;8.20;99.90;;;;;;5081621;28;20300;-66
2021/04/17 06:08:40;;;;;;;23.07;14.37;;;8.30;99.90;;;;;;5083606;28;20213;-65
2021/04/17 06:11:07;;;;;;;22.53;14.00;;;8.30;99.90;;;;;;5083315;28;20288;-67
2021/04/17 06:13:34;;;;;;;21.67;14.00;;;8.40;99.90;;;;;;5083683;28;20224;-67
2021/04/17 06:16:02;;;;;;;26.30;15.10;;;8.40;99.90;;;;;;5074011;28;20228;-65
2021/04/17 06:18:28;;;;;;;25.63;15.50;;;8.50;99.90;;;;;;5086818;28;20224;-67
2021/04/17 06:20:54;;;;;;;27.47;14.63;;;8.50;99.90;;;;;;5075695;28;20239;-67
2021/04/17 06:23:21;;;;;;;26.17;13.70;;;8.60;99.90;;;;;;5090032;28;20201;-66
2021/04/17 06:25:47;;;;;;;23.70;15.43;;;8.60;99.90;;;;;;5081236;28;20288;-67
2021/04/17 06:28:14;;;;;;;27.87;14.37;;;8.60;99.90;;;;;;5080567;28;20228;-69
2021/04/17 06:30:40;;;;;;;26.10;14.67;;;8.60;99.90;;;;;;5078129;28;20236;-66
2021/04/17 06:33:09;;;;;;;28.50;15.20;;;8.60;99.90;;;;;;5070912;28;20204;-68
2021/04/17 06:35:35;;;;;;;25.07;14.47;;;8.60;99.90;;;;;;5081203;28;20217;-68
2021/04/17 06:38:02;;;;;;;22.57;14.50;;;8.70;99.90;;;;;;5069060;28;20221;-67
2021/04/17 06:40:28;;;;;;;27.90;15.57;;;8.60;99.90;;;;;;5080372;28;20244;-68
2021/04/17 06:42:57;;;;;;;26.27;15.33;;;8.60;99.90;;;;;;5087919;28;20208;-67
2021/04/17 06:45:24;;;;;;;24.67;14.47;;;8.60;99.90;;;;;;5071946;28;20210;-68
2021/04/17 06:47:51;;;;;;;28.27;15.37;;;8.60;99.90;;;;;;5083951;28;20372;-67
2021/04/17 06:50:19;;;;;;;25.30;16.07;;;8.60;99.90;;;;;;5079189;28;20240;-67
2021/04/17 06:52:47;;;;;;;23.10;13.97;;;8.60;99.90;;;;;;5089349;28;20212;-68
2021/04/17 06:55:14;;;;;;;30.27;16.43;;;8.60;99.90;;;;;;5080340;28;20664;-68
2021/04/17 06:57:41;;;;;;;27.60;15.60;;;8.70;99.90;;;;;;5083130;28;20752;-68
2021/04/17 07:00:09;;;;;;;31.87;16.70;;;8.70;99.90;;;;;;5077741;28;20215;-70
2021/04/17 07:02:36;;;;;;;31.07;15.17;;;8.70;99.90;;;;;;5091240;28;20244;-69
2021/04/17 07:05:04;;;;;;;28.60;16.43;;;8.70;99.90;;;;;;5079639;28;20207;-70
2021/04/17 07:07:33;;;;;;;28.27;15.93;;;8.70;99.90;;;;;;5086926;28;20545;-70
2021/04/17 07:09:59;;;;;;;25.60;14.77;;;8.70;99.90;;;;;;5078916;28;20209;-68
2021/04/17 07:12:26;;;;;;;27.57;15.70;;;8.80;99.90;;;;;;5073427;28;20240;-68
2021/04/17 07:14:54;;;;;;;29.83;15.97;;;8.80;99.90;;;;;;5075260;28;20229;-70
2021/04/17 07:17:21;;;;;;;27.00;15.47;;;8.80;99.90;;;;;;5066433;28;20224;-69
2021/04/17 07:19:55;;;;;;;28.10;16.77;;;8.80;99.90;;;;;;5073726;28;20262;-65
2021/04/17 07:22:23;;;;;;;24.93;15.20;;;8.80;99.90;;;;;;5067671;28;20205;-67
2021/04/17 07:24:53;;;;;;;27.13;15.67;;;8.80;99.90;;;;;;5070663;28;20266;-66
2021/04/17 07:27:37;;;;;;;28.10;15.73;;;8.70;99.90;;;;;;5069145;28;20236;-68
2021/04/17 07:30:08;;;;;;;29.77;17.37;;;8.70;99.90;;;;;;5064062;28;20205;-69
2021/04/17 07:32:34;;;;;;;31.13;15.87;;;8.70;99.90;;;;;;5067263;28;20198;-67
2021/04/17 07:35:12;;;;;;;30.70;16.70;;;8.70;99.90;;;;;;5062151;28;20203;-66
2021/04/17 07:37:41;;;;;;;27.53;16.73;;;8.80;99.90;;;;;;5068861;28;20216;-66
2021/04/17 07:40:23;;;;;;;30.00;16.43;;;8.70;99.90;;;;;;5072303;28;20206;-68
2021/04/17 07:42:52;;;;;;;32.93;17.00;;;8.70;99.90;;;;;;5066520;28;20292;-68
2021/04/17 07:45:22;;;;;;;35.67;18.60;;;8.80;99.90;;;;;;5069591;28;20296;-68
2021/04/17 07:47:48;;;;;;;31.37;18.00;;;8.70;99.90;;;;;;5080594;28;20287;-69
2021/04/17 07:50:15;;;;;;;34.10;18.37;;;8.80;99.90;;;;;;5077734;28;20202;-68
2021/04/17 07:52:41;;;;;;;33.60;18.47;;;8.80;99.90;;;;;;5072808;28;20281;-70
2021/04/17 07:55:10;;;;;;;31.33;18.50;;;8.80;99.90;;;;;;5074814;28;20201;-67
2021/04/17 07:57:39;;;;;;;40.13;18.93;;;8.80;99.90;;;;;;5070665;28;20229;-67
2021/04/17 08:00:08;;;;;;;34.77;18.57;;;8.80;99.90;;;;;;5069109;28;20211;-68
2021/04/17 08:02:35;;;;;;;32.87;19.07;;;8.90;99.90;;;;;;5065082;28;20668;-68
2021/04/17 08:05:03;;;;;;;32.87;18.20;;;8.90;99.90;;;;;;5066923;28;20230;-68
2021/04/17 08:07:29;;;;;;;33.53;18.93;;;8.80;99.90;;;;;;5070225;28;20292;-65
2021/04/17 08:09:59;;;;;;;37.07;20.60;;;8.90;99.90;;;;;;5070114;28;20547;-67
2021/04/17 08:12:25;;;;;;;32.60;19.30;;;8.80;99.90;;;;;;5067883;28;20522;-67
2021/04/17 08:14:53;;;;;;;36.20;19.77;;;8.80;99.90;;;;;;5071686;28;20346;-68
2021/04/17 08:17:21;;;;;;;34.27;19.93;;;8.90;99.90;;;;;;5072488;28;20332;-67
2021/04/17 08:19:56;;;;;;;38.20;21.23;;;8.90;99.90;;;;;;5074936;28;20209;-68
2021/04/17 08:22:22;;;;;;;33.33;20.67;;;8.90;99.90;;;;;;5074206;28;20201;-69
2021/04/17 08:24:50;;;;;;;33.70;18.57;;;8.90;99.90;;;;;;5072365;28;20247;-68
2021/04/17 08:27:17;;;;;;;36.17;20.93;;;8.90;99.90;;;;;;5074830;28;21069;-67
2021/04/17 08:29:45;;;;;;;38.80;20.57;;;8.90;99.90;;;;;;5076457;28;20604;-67
2021/04/17 08:32:33;;;;;;;45.70;21.77;;;8.90;99.90;;;;;;5078700;28;20246;-68
2021/04/17 08:35:12;;;;;;;32.93;19.43;;;8.90;99.90;;;;;;5080397;28;20212;-69
2021/04/17 08:38:10;;;;;;;31.83;19.73;;;8.90;99.90;;;;;;5080486;28;20204;-68
2021/04/17 08:40:54;;;;;;;35.90;19.40;;;8.90;99.90;;;;;;5080642;28;20209;-66
2021/04/17 08:43:32;;;;;;;34.63;19.47;;;8.90;99.90;;;;;;5080933;28;20292;-69
2021/04/17 08:46:12;;;;;;;33.90;18.70;;;8.90;99.90;;;;;;5072080;28;20209;-69
2021/04/17 08:48:45;;;;;;;30.30;18.73;;;8.90;99.90;;;;;;5086734;28;20199;-68
2021/04/17 08:51:25;;;;;;;36.87;20.40;;;9.00;99.90;;;;;;5089491;28;20626;-69
2021/04/17 08:53:58;;;;;;;31.90;18.40;;;9.00;99.90;;;;;;5088952;28;20205;-67
2021/04/17 08:56:46;;;;;;;36.93;21.60;;;9.00;99.90;;;;;;5078648;28;20209;-68
2021/04/17 08:59:13;;;;;;;32.77;19.73;;;9.00;99.90;;;;;;5087546;28;20752;-68
2021/04/17 09:01:40;;;;;;;30.03;19.07;;;9.10;99.90;;;;;;5084316;28;20212;-68
2021/04/17 09:04:12;;;;;;;31.37;19.03;;;9.10;99.90;;;;;;5081866;28;20215;-68
2021/04/17 09:06:43;;;;;;;31.57;18.87;;;9.20;99.90;;;;;;5087723;28;20206;-68
2021/04/17 09:09:31;;;;;;;29.83;19.40;;;9.30;99.90;;;;;;5091314;28;20209;-67
2021/04/17 09:12:16;;;;;;;32.00;19.47;;;9.30;99.90;;;;;;5081705;28;20295;-67
2021/04/17 09:15:04;;;;;;;33.20;19.57;;;9.30;99.90;;;;;;5090886;28;20724;-68
2021/04/17 09:17:43;;;;;;;33.07;18.97;;;9.40;99.90;;;;;;5087075;28;20252;-67
2021/04/17 09:20:29;;;;;;;28.20;17.87;;;9.50;99.90;;;;;;5086096;28;20288;-68
2021/04/17 09:22:56;;;;;;;30.80;18.67;;;9.50;99.90;;;;;;5086065;28;20265;-68
2021/04/17 09:25:44;;;;;;;27.03;17.07;;;9.60;99.90;;;;;;5083872;28;20213;-68
2021/04/17 09:28:11;;;;;;;26.63;17.27;;;9.60;99.90;;;;;;5088487;28;20221;-67
2021/04/17 09:30:37;;;;;;;25.30;16.67;;;9.60;99.90;;;;;;5090411;28;20645;-68
2021/04/17 09:33:05;;;;;;;27.10;17.50;;;9.60;99.90;;;;;;5084018;28;20216;-68
2021/04/17 09:35:37;;;;;;;26.40;17.10;;;9.60;99.90;;;;;;5080092;28;20257;-68
2021/04/17 09:38:07;;;;;;;26.87;18.00;;;9.60;99.90;;;;;;5085848;28;20668;-68
2021/04/17 09:40:35;;;;;;;23.73;16.00;;;9.60;99.90;;;;;;5090697;28;20614;-68
2021/04/17 09:43:02;;;;;;;23.00;16.10;;;9.60;99.90;;;;;;5092337;28;20660;-68
2021/04/17 09:45:31;;;;;;;23.97;16.40;;;9.60;99.90;;;;;;5081070;28;20214;-67
2021/04/17 09:47:58;;;;;;;24.90;16.67;;;9.60;99.90;;;;;;5087389;28;20209;-68
2021/04/17 09:50:26;;;;;;;24.63;16.60;;;9.60;99.90;;;;;;5081464;28;20619;-68
2021/04/17 09:52:54;;;;;;;24.77;16.53;;;9.60;99.90;;;;;;5081067;28;20569;-67
2021/04/17 09:55:20;;;;;;;23.87;16.67;;;9.60;99.90;;;;;;5091158;28;20212;-67
2021/04/17 09:57:47;;;;;;;22.53;16.43;;;9.60;99.90;;;;;;5087968;28;20220;-69
2021/04/17 10:00:15;;;;;;;26.97;16.90;;;9.70;99.90;;;;;;5084989;28;20201;-68
2021/04/17 10:02:43;;;;;;;21.07;15.80;;;9.70;99.90;;;;;;5080561;28;20296;-68
2021/04/17 10:05:12;;;;;;;22.87;15.23;;;9.70;99.90;;;;;;5071320;28;20215;-67
2021/04/17 10:07:43;;;;;;;21.67;15.53;;;9.70;99.90;;;;;;5069916;28;20703;-68
2021/04/17 10:10:12;;;;;;;19.97;14.90;;;9.70;99.90;;;;;;5073614;28;20197;-67
2021/04/17 10:12:48;;;;;;;21.13;15.60;;;9.70;99.90;;;;;;5074063;28;20207;-68
2021/04/17 10:15:16;;;;;;;21.27;14.93;;;9.70;99.90;;;;;;5067629;28;20363;-67
2021/04/17 10:17:42;;;;;;;19.70;13.80;;;9.70;99.90;;;;;;5072577;28;20225;-68
2021/04/17 10:20:11;;;;;;;20.40;15.17;;;9.70;99.90;;;;;;5067413;28;20584;-68
2021/04/17 10:22:37;;;;;;;23.13;15.60;;;9.70;99.90;;;;;;5073868;28;20292;-68
2021/04/17 10:25:07;;;;;;;21.30;15.10;;;9.70;99.90;;;;;;5074122;28;20354;-68
2021/04/17 10:27:36;;;;;;;21.70;14.80;;;9.70;99.90;;;;;;5071322;28;20908;-68
2021/04/17 10:30:15;;;;;;;23.00;15.30;;;9.70;99.90;;;;;;5073295;28;20623;-70
2021/04/17 10:32:41;;;;;;;25.97;16.47;;;9.70;99.90;;;;;;5073560;28;20288;-68
2021/04/17 10:35:10;;;;;;;23.43;15.70;;;9.80;99.90;;;;;;5072679;28;20567;-68
2021/04/17 10:37:43;;;;;;;19.90;14.70;;;9.80;99.90;;;;;;5073479;28;20270;-68
2021/04/17 10:40:11;;;;;;;21.70;15.20;;;10.00;99.90;;;;;;5060283;28;20610;-68
2021/04/17 10:42:46;;;;;;;22.60;15.70;;;9.90;99.90;;;;;;5073771;28;20201;-69
2021/04/17 10:45:14;;;;;;;21.50;15.00;;;9.90;99.90;;;;;;5072049;28;20208;-68
2021/04/17 10:47:40;;;;;;;22.60;15.60;;;10.00;99.90;;;;;;5073336;28;20689;-68
2021/04/17 10:50:22;;;;;;;22.00;15.50;;;10.10;99.90;;;;;;5063311;28;20247;-68
2021/04/17 10:52:57;;;;;;;21.97;16.30;;;10.20;99.90;;;;;;5065705;28;20727;-68
2021/04/17 10:55:36;;;;;;;22.00;15.90;;;10.30;99.90;;;;;;5073791;28;20267;-68
2021/04/17 10:58:04;;;;;;;21.83;15.40;;;10.40;99.90;;;;;;5073022;28;20658;-68
2021/04/17 11:00:32;;;;;;;20.57;15.27;;;10.30;99.90;;;;;;5073544;28;20288;-68
2021/04/17 11:02:59;;;;;;;20.77;14.83;;;10.40;99.90;;;;;;5073186;28;20205;-68
2021/04/17 11:05:30;;;;;;;22.33;15.70;;;10.40;99.90;;;;;;5067123;28;20676;-70
2021/04/17 11:08:01;;;;;;;20.20;15.10;;;10.40;99.90;;;;;;5073374;28;20194;-68
2021/04/17 11:10:33;;;;;;;22.57;15.80;;;10.40;99.90;;;;;;5072630;28;20201;-68
2021/04/17 11:13:00;;;;;;;21.43;14.83;;;10.40;99.90;;;;;;5073343;28;20205;-68
2021/04/17 11:15:29;;;;;;;20.20;14.30;;;10.30;99.90;;;;;;5067437;28;20210;-69
2021/04/17 11:18:13;;;;;;;20.60;14.93;;;10.40;99.90;;;;;;5072597;28;20278;-69
2021/04/17 11:20:55;;;;;;;21.90;15.37;;;10.40;99.90;;;;;;5071676;28;20233;-68
2021/04/17 11:23:40;;;;;;;21.93;16.03;;;10.40;99.90;;;;;;5068600;28;20283;-68
2021/04/17 11:26:08;;;;;;;20.53;14.53;;;10.50;99.90;;;;;;5069815;28;20212;-69
2021/04/17 11:28:35;;;;;;;22.37;15.63;;;10.70;99.90;;;;;;5072368;28;20312;-68
2021/04/17 11:31:02;;;;;;;26.00;15.90;;;10.90;99.90;;;;;;5069452;28;20281;-69
2021/04/17 11:33:29;;;;;;;19.77;15.07;;;11.00;99.90;;;;;;5070083;28;20205;-69
2021/04/17 11:35:55;;;;;;;21.20;14.60;;;11.10;99.90;;;;;;5071664;28;20207;-68
2021/04/17 11:38:22;;;;;;;19.67;14.70;;;11.10;99.90;;;;;;5072605;28;20216;-69
2021/04/17 11:40:49;;;;;;;21.50;14.43;;;11.10;99.90;;;;;;5071998;28;20232;-69
2021/04/17 11:43:16;;;;;;;20.07;14.30;;;11.10;99.90;;;;;;5074984;28;20236;-69
2021/04/17 11:45:43;;;;;;;19.97;15.23;;;11.10;99.90;;;;;;5076119;28;20241;-69
2021/04/17 11:48:11;;;;;;;19.73;14.83;;;11.00;99.90;;;;;;5076875;28;20220;-68
2021/04/17 11:50:38;;;;;;;23.90;15.70;;;11.00;99.90;;;;;;5076469;28;20248;-68
2021/04/17 11:53:05;;;;;;;19.07;14.40;;;11.00;99.90;;;;;;5076297;28;20634;-70
2021/04/17 11:55:32;;;;;;;20.97;15.83;;;10.90;99.90;;;;;;5073000;28;20240;-68
2021/04/17 11:57:59;;;;;;;18.87;14.20;;;10.90;99.90;;;;;;5076491;28;20228;-68
2021/04/17 12:00:25;;;;;;;18.57;13.43;;;10.90;99.90;;;;;;5072830;28;20205;-67
2021/04/17 12:02:51;;;;;;;20.17;14.30;;;10.90;99.90;;;;;;5077521;28;20207;-70
2021/04/17 12:05:19;;;;;;;21.33;14.67;;;10.90;99.90;;;;;;5071650;28;20360;-68
2021/04/17 12:07:45;;;;;;;20.10;15.07;;;11.00;99.90;;;;;;5076963;28;20706;-68
2021/04/17 12:10:13;;;;;;;21.70;14.67;;;11.00;99.90;;;;;;5074604;28;20296;-70
2021/04/17 12:12:39;;;;;;;20.50;14.53;;;11.10;99.90;;;;;;5075834;28;20233;-68
2021/04/17 12:15:07;;;;;;;20.70;14.83;;;11.10;99.90;;;;;;5073455;28;20278;-68
2021/04/17 12:17:34;;;;;;;19.87;14.20;;;11.20;99.90;;;;;;5071895;28;20558;-69
2021/04/17 12:20:01;;;;;;;17.73;13.93;;;11.30;99.90;;;;;;5076208;28;20733;-68
2021/04/17 12:22:28;;;;;;;19.03;14.17;;;11.40;99.90;;;;;;5070409;28;20205;-69
2021/04/17 12:24:54;;;;;;;21.23;14.63;;;11.50;99.90;;;;;;5069756;28;20212;-69
2021/04/17 12:27:21;;;;;;;18.67;14.07;;;11.50;99.90;;;;;;5068790;28;20292;-69
2021/04/17 12:29:48;;;;;;;19.70;13.80;;;11.50;99.90;;;;;;5073156;28;20609;-67
2021/04/17 12:32:14;;;;;;;18.10;13.77;;;11.80;99.90;;;;;;5075473;28;20585;-69
2021/04/17 12:34:41;;;;;;;18.43;14.00;;;12.10;99.90;;;;;;5064582;28;20241;-67
2021/04/17 12:37:07;;;;;;;18.43;14.00;;;12.50;99.90;;;;;;5074785;28;20225;-68
2021/04/17 12:39:35;;;;;;;20.27;14.40;;;12.80;99.90;;;;;;5075526;28;20217;-69
2021/04/17 12:42:01;;;;;;;19.60;14.20;;;13.00;99.90;;;;;;5075338;28;20201;-69